createdAt,value
2022-10-01T00:00:35.793Z,17.82
2022-10-01T00:03:31.057Z,17.89
2022-10-01T00:06:18.343Z,17.88
2022-10-01T00:08:59.595Z,17.84
2022-10-01T00:11:28.255Z,17.75
2022-10-01T00:14:31.695Z,17.72
2022-10-01T00:17:00.217Z,17.70
2022-10-01T00:19:32.028Z,17.62
2022-10-01T00:22:10.232Z,17.50
2022-10-01T00:24:45.386Z,17.49
2022-10-01T00:27:18.768Z,17.37
2022-10-01T00:29:55.430Z,17.36
2022-10-01T00:32:32.319Z,17.24
2022-10-01T00:35:10.018Z,17.24
2022-10-01T00:37:42.886Z,17.22
2022-10-01T00:40:16.700Z,17.16
2022-10-01T00:42:53.576Z,17.14
2022-10-01T00:45:24.738Z,17.14
2022-10-01T00:48:18.229Z,17.13
2022-10-01T00:50:50.294Z,17.16
2022-10-01T00:53:19.037Z,17.19
2022-10-01T00:55:58.370Z,17.21
2022-10-01T00:59:00.846Z,17.23
2022-10-01T01:01:39.051Z,17.26
2022-10-01T01:04:19.413Z,17.30
2022-10-01T01:07:21.230Z,17.36
2022-10-01T01:09:55.185Z,17.40
2022-10-01T01:13:09.614Z,17.39
2022-10-01T01:16:20.205Z,17.39
2022-10-01T01:20:01.551Z,17.40
2022-10-01T01:22:32.325Z,17.40
2022-10-01T01:25:46.490Z,17.34
2022-10-01T01:28:46.691Z,17.28
2022-10-01T01:31:55.077Z,17.21
2022-10-01T01:34:34.014Z,17.24
2022-10-01T01:37:22.317Z,17.29
2022-10-01T01:40:01.031Z,17.36
2022-10-01T01:42:49.562Z,17.37
2022-10-01T01:45:40.708Z,17.39
2022-10-01T01:48:27.400Z,17.43
2022-10-01T01:52:12.246Z,17.44
2022-10-01T01:55:33.968Z,17.54
2022-10-01T01:58:38.896Z,17.59
2022-10-01T02:02:05.262Z,17.58
2022-10-01T02:05:37.429Z,17.61
2022-10-01T02:08:38.006Z,17.69
2022-10-01T02:11:19.025Z,17.68
2022-10-01T02:14:37.042Z,17.58
2022-10-01T02:17:36.983Z,17.50
2022-10-01T02:20:39.526Z,17.51
2022-10-01T02:23:28.634Z,17.58
2022-10-01T02:26:02.815Z,17.64
2022-10-01T02:28:43.301Z,17.69
2022-10-01T02:31:14.077Z,17.61
2022-10-01T02:33:47.042Z,17.53
2022-10-01T02:36:22.878Z,17.56
2022-10-01T02:39:15.924Z,17.56
2022-10-01T02:41:48.091Z,17.45
2022-10-01T02:44:23.412Z,17.32
2022-10-01T02:47:00.966Z,17.33
2022-10-01T02:49:30.882Z,17.32
2022-10-01T02:52:44.173Z,17.37
2022-10-01T02:55:31.255Z,17.45
2022-10-01T02:58:02.231Z,17.49
2022-10-01T03:00:33.593Z,17.47
2022-10-01T03:03:02.056Z,17.46
2022-10-01T03:05:30.337Z,17.24
2022-10-01T03:08:23.996Z,17.13
2022-10-01T03:10:57.848Z,17.25
2022-10-01T03:13:29.460Z,17.36
2022-10-01T03:16:00.176Z,17.45
2022-10-01T03:18:31.231Z,17.54
2022-10-01T03:20:59.518Z,17.61
2022-10-01T03:23:33.326Z,17.63
2022-10-01T03:26:01.249Z,17.61
2022-10-01T03:28:29.624Z,17.57
2022-10-01T03:34:00.925Z,17.61
2022-10-01T03:36:32.275Z,17.62
2022-10-01T03:39:03.237Z,17.66
2022-10-01T03:41:34.037Z,17.70
2022-10-01T03:44:07.479Z,17.72
2022-10-01T03:46:38.581Z,17.70
2022-10-01T03:49:10.770Z,17.75
2022-10-01T03:51:49.485Z,17.77
2022-10-01T03:54:39.459Z,17.85
2022-10-01T03:57:16.228Z,17.86
2022-10-01T03:59:52.079Z,17.88
2022-10-01T04:02:27.992Z,17.87
2022-10-01T04:05:07.677Z,17.88
2022-10-01T04:07:50.017Z,17.89
2022-10-01T04:10:18.238Z,17.90
2022-10-01T04:12:46.367Z,17.88
2022-10-01T04:15:37.135Z,17.87
2022-10-01T04:18:13.391Z,17.82
2022-10-01T04:20:47.201Z,17.74
2022-10-01T04:23:20.693Z,17.69
2022-10-01T04:25:53.883Z,17.65
2022-10-01T04:28:30.830Z,17.57
2022-10-01T04:31:21.247Z,17.52
2022-10-01T04:34:18.611Z,17.53
2022-10-01T04:36:50.381Z,17.56
2022-10-01T04:39:26.018Z,17.62
2022-10-01T04:41:56.797Z,17.64
2022-10-01T04:44:36.940Z,17.64
2022-10-01T04:47:12.757Z,17.66
2022-10-01T04:49:44.284Z,17.67
2022-10-01T04:52:12.692Z,17.70
2022-10-01T04:54:48.756Z,17.74
2022-10-01T04:57:22.960Z,17.74
2022-10-01T04:59:59.531Z,17.70
2022-10-01T05:02:34.757Z,17.64
2022-10-01T05:05:11.786Z,17.58
2022-10-01T05:07:42.887Z,17.56
2022-10-01T05:10:18.846Z,17.52
2022-10-01T05:12:48.076Z,17.49
2022-10-01T05:15:24.450Z,17.50
2022-10-01T05:17:57.698Z,17.55
2022-10-01T05:20:43.076Z,17.60
2022-10-01T05:23:17.595Z,17.69
2022-10-01T05:25:51.710Z,17.68
2022-10-01T05:28:32.951Z,17.69
2022-10-01T05:31:44.817Z,17.74
2022-10-01T05:34:17.770Z,17.67
2022-10-01T05:36:49.315Z,17.65
2022-10-01T05:39:22.481Z,17.55
2022-10-01T05:41:57.807Z,17.56
2022-10-01T05:44:55.110Z,17.57
2022-10-01T05:48:09.958Z,17.65
2022-10-01T05:51:08.547Z,17.67
2022-10-01T05:54:23.001Z,17.62
2022-10-01T05:57:20.345Z,17.40
2022-10-01T06:00:33.962Z,16.97
2022-10-01T06:03:15.191Z,17.10
2022-10-01T06:05:49.099Z,17.19
2022-10-01T06:08:22.824Z,17.31
2022-10-01T06:10:59.701Z,17.42
2022-10-01T06:13:33.537Z,17.47
2022-10-01T06:16:08.321Z,17.55
2022-10-01T06:18:38.945Z,17.63
2022-10-01T06:21:10.534Z,17.74
2022-10-01T06:23:45.061Z,17.83
2022-10-01T06:26:18.668Z,17.86
2022-10-01T06:29:07.846Z,17.94
2022-10-01T06:31:41.964Z,18.03
2022-10-01T06:34:25.207Z,18.13
2022-10-01T06:37:04.762Z,18.18
2022-10-01T06:39:35.693Z,18.19
2022-10-01T06:42:26.840Z,18.19
2022-10-01T06:45:15.201Z,18.17
2022-10-01T06:47:47.556Z,18.16
2022-10-01T06:50:36.090Z,18.17
2022-10-01T06:53:13.132Z,18.18
2022-10-01T06:55:44.402Z,18.17
2022-10-01T06:58:28.484Z,18.21
2022-10-01T07:01:08.331Z,18.26
2022-10-01T07:03:41.997Z,18.41
2022-10-01T07:06:16.417Z,18.50
2022-10-01T07:08:50.450Z,18.59
2022-10-01T07:11:54.795Z,18.64
2022-10-01T07:14:33.262Z,18.80
2022-10-01T07:17:22.352Z,18.89
2022-10-01T07:19:53.948Z,18.98
2022-10-01T07:22:35.239Z,19.00
2022-10-01T07:25:20.027Z,18.92
2022-10-01T07:28:04.650Z,18.93
2022-10-01T07:30:36.133Z,18.96
2022-10-01T07:33:07.094Z,19.04
2022-10-01T07:35:38.270Z,19.12
2022-10-01T07:38:10.477Z,19.08
2022-10-01T07:40:42.034Z,19.17
2022-10-01T07:43:10.587Z,19.14
2022-10-01T07:45:47.296Z,19.19
2022-10-01T07:48:26.520Z,19.22
2022-10-01T07:51:05.035Z,19.24
2022-10-01T07:53:36.387Z,19.34
2022-10-01T07:56:07.621Z,19.45
2022-10-01T07:58:38.739Z,19.54
2022-10-01T08:01:12.312Z,19.64
2022-10-01T08:03:43.512Z,19.64
2022-10-01T08:06:34.386Z,19.64
2022-10-01T08:09:26.093Z,19.63
2022-10-01T08:11:56.874Z,19.58
2022-10-01T08:14:30.467Z,19.64
2022-10-01T08:17:19.363Z,19.67
2022-10-01T08:19:52.113Z,19.58
2022-10-01T08:22:55.522Z,19.49
2022-10-01T08:25:38.660Z,19.45
2022-10-01T08:28:20.865Z,19.47
2022-10-01T08:31:18.217Z,19.40
2022-10-01T08:34:12.022Z,19.35
2022-10-01T08:36:57.630Z,19.38
2022-10-01T08:39:31.216Z,19.39
2022-10-01T08:42:14.469Z,19.37
2022-10-01T08:45:11.756Z,19.46
2022-10-01T08:47:53.738Z,19.56
2022-10-01T08:50:35.062Z,19.71
2022-10-01T08:53:15.748Z,19.78
2022-10-01T08:55:59.613Z,19.84
2022-10-01T08:58:40.641Z,19.88
2022-10-01T09:01:11.996Z,19.94
2022-10-01T09:04:07.014Z,20.00
2022-10-01T09:06:46.882Z,20.15
2022-10-01T09:09:39.948Z,20.34
2022-10-01T09:12:49.966Z,19.85
2022-10-01T09:15:35.417Z,19.17
2022-10-01T09:19:32.141Z,18.81
2022-10-01T09:23:29.074Z,19.68
2022-10-01T09:26:57.853Z,20.60
2022-10-01T09:29:53.580Z,20.90
2022-10-01T09:33:25.216Z,20.77
2022-10-01T09:36:23.961Z,19.74
2022-10-01T09:40:14.444Z,19.13
2022-10-01T09:43:29.607Z,18.79
2022-10-01T09:46:58.127Z,19.65
2022-10-01T09:50:17.985Z,20.65
2022-10-01T09:53:59.480Z,21.03
2022-10-01T09:57:32.074Z,21.14
2022-10-01T10:00:58.343Z,20.65
2022-10-01T10:04:53.601Z,19.79
2022-10-01T10:07:57.307Z,19.92
2022-10-01T10:10:35.867Z,20.41
2022-10-01T10:13:10.809Z,20.57
2022-10-01T10:16:25.147Z,20.66
2022-10-01T10:19:30.063Z,19.98
2022-10-01T10:22:25.002Z,19.25
2022-10-01T10:25:05.408Z,19.47
2022-10-01T10:27:33.651Z,20.00
2022-10-01T10:30:34.601Z,20.40
2022-10-01T10:33:05.521Z,20.75
2022-10-01T10:36:31.179Z,20.70
2022-10-01T10:39:45.359Z,19.92
2022-10-01T10:42:19.902Z,19.34
2022-10-01T10:44:53.149Z,18.95
2022-10-01T10:47:31.721Z,18.97
2022-10-01T10:50:09.741Z,19.57
2022-10-01T10:52:45.698Z,20.02
2022-10-01T10:55:31.187Z,20.35
2022-10-01T10:58:15.007Z,20.75
2022-10-01T11:00:59.450Z,21.05
2022-10-01T11:03:32.997Z,21.22
2022-10-01T11:06:20.118Z,20.95
2022-10-01T11:09:07.536Z,20.31
2022-10-01T11:12:25.206Z,19.76
2022-10-01T11:15:34.738Z,20.19
2022-10-01T11:19:02.690Z,20.97
2022-10-01T11:21:59.058Z,21.50
2022-10-01T11:25:22.796Z,21.28
2022-10-01T11:28:55.756Z,20.74
2022-10-01T11:32:22.153Z,20.12
2022-10-01T11:35:34.441Z,19.78
2022-10-01T11:39:14.017Z,19.68
2022-10-01T11:41:55.948Z,20.19
2022-10-01T11:45:02.648Z,21.00
2022-10-01T11:48:02.055Z,21.52
2022-10-01T11:50:53.321Z,21.08
2022-10-01T11:53:36.478Z,20.55
2022-10-01T11:56:30.368Z,20.16
2022-10-01T11:59:06.813Z,19.87
2022-10-01T12:02:28.280Z,19.66
2022-10-01T12:05:07.937Z,19.77
2022-10-01T12:08:28.137Z,20.61
2022-10-01T12:11:23.648Z,21.25
2022-10-01T12:14:02.283Z,21.34
2022-10-01T12:17:20.042Z,20.81
2022-10-01T12:19:55.667Z,20.27
2022-10-01T12:22:50.146Z,20.02
2022-10-01T12:26:11.715Z,19.87
2022-10-01T12:29:38.374Z,20.45
2022-10-01T12:33:23.747Z,21.37
2022-10-01T12:36:26.125Z,21.95
2022-10-01T12:39:48.980Z,21.99
2022-10-01T12:43:39.697Z,21.15
2022-10-01T12:46:49.943Z,20.57
2022-10-01T12:50:22.081Z,20.18
2022-10-01T12:53:31.972Z,19.82
2022-10-01T12:56:46.283Z,19.58
2022-10-01T12:59:42.369Z,19.50
2022-10-01T13:02:35.202Z,19.41
2022-10-01T13:05:58.200Z,19.55
2022-10-01T13:09:54.343Z,20.60
2022-10-01T13:13:07.822Z,21.46
2022-10-01T13:15:49.686Z,21.81
2022-10-01T13:18:49.072Z,21.98
2022-10-01T13:22:28.386Z,21.49
2022-10-01T13:25:47.924Z,20.50
2022-10-01T13:29:21.659Z,19.77
2022-10-01T13:32:27.683Z,19.22
2022-10-01T13:35:59.662Z,18.86
2022-10-01T13:38:56.117Z,19.51
2022-10-01T13:41:34.059Z,20.17
2022-10-01T13:44:45.545Z,20.58
2022-10-01T13:47:21.967Z,20.89
2022-10-01T13:50:37.988Z,21.11
2022-10-01T13:53:52.163Z,21.30
2022-10-01T13:57:27.006Z,21.43
2022-10-01T14:00:59.052Z,21.52
2022-10-01T14:04:15.767Z,21.52
2022-10-01T14:07:46.816Z,21.40
2022-10-01T14:11:39.641Z,21.26
2022-10-01T14:15:02.478Z,21.04
2022-10-01T14:17:56.934Z,20.89
2022-10-01T14:21:05.565Z,20.75
2022-10-01T14:24:28.300Z,20.61
2022-10-01T14:27:57.881Z,20.55
2022-10-01T14:30:47.870Z,20.50
2022-10-01T14:33:57.991Z,20.48
2022-10-01T14:36:55.695Z,20.46
2022-10-01T14:39:53.760Z,20.51
2022-10-01T14:43:17.342Z,20.57
2022-10-01T14:46:45.949Z,20.65
2022-10-01T14:49:37.697Z,20.72
2022-10-01T14:52:47.112Z,20.80
2022-10-01T14:55:34.316Z,20.87
2022-10-01T14:58:02.663Z,20.87
2022-10-01T15:00:33.316Z,20.89
2022-10-01T15:03:17.752Z,20.93
2022-10-01T15:06:21.792Z,20.97
2022-10-01T15:09:15.535Z,21.02
2022-10-01T15:11:52.598Z,21.01
2022-10-01T15:14:27.181Z,21.00
2022-10-01T15:17:47.245Z,21.02
2022-10-01T15:20:18.666Z,21.04
2022-10-01T15:23:11.021Z,21.05
2022-10-01T15:26:06.054Z,21.03
2022-10-01T15:29:05.791Z,21.01
2022-10-01T15:31:54.973Z,20.96
2022-10-01T15:34:37.169Z,20.92
2022-10-01T15:37:16.709Z,20.82
2022-10-01T15:39:58.598Z,20.69
2022-10-01T15:42:38.778Z,20.58
2022-10-01T15:45:12.802Z,20.51
2022-10-01T15:48:48.144Z,20.50
2022-10-01T15:51:31.170Z,20.46
2022-10-01T15:54:11.688Z,20.44
2022-10-01T15:56:42.262Z,20.43
2022-10-01T15:59:30.767Z,20.42
2022-10-01T16:02:01.514Z,20.31
2022-10-01T16:04:58.295Z,20.24
2022-10-01T16:07:34.927Z,20.16
2022-10-01T16:10:40.842Z,20.04
2022-10-01T16:14:01.705Z,19.98
2022-10-01T16:16:53.663Z,20.00
2022-10-01T16:20:36.758Z,20.05
2022-10-01T16:23:47.014Z,20.16
2022-10-01T16:27:03.182Z,20.21
2022-10-01T16:29:37.391Z,20.18
2022-10-01T16:32:26.005Z,20.12
2022-10-01T16:35:26.394Z,20.13
2022-10-01T16:38:20.408Z,20.12
2022-10-01T16:40:52.625Z,20.15
2022-10-01T16:43:24.428Z,20.16
2022-10-01T16:46:03.005Z,20.16
2022-10-01T16:48:38.576Z,20.20
2022-10-01T16:51:40.498Z,20.18
2022-10-01T16:54:42.329Z,20.16
2022-10-01T16:57:16.713Z,20.18
2022-10-01T16:59:53.523Z,20.21
2022-10-01T17:02:32.962Z,20.20
2022-10-01T17:05:31.482Z,20.20
2022-10-01T17:08:13.686Z,20.22
2022-10-01T17:10:47.363Z,20.19
2022-10-01T17:13:17.948Z,20.13
2022-10-01T17:15:51.889Z,20.13
2022-10-01T17:18:55.633Z,20.15
2022-10-01T17:21:29.707Z,20.18
2022-10-01T17:24:21.428Z,20.16
2022-10-01T17:26:52.593Z,20.16
2022-10-01T17:29:26.792Z,20.18
2022-10-01T17:31:55.259Z,20.14
2022-10-01T17:34:26.632Z,20.09
2022-10-01T17:36:59.936Z,20.03
2022-10-01T17:40:17.021Z,19.99
2022-10-01T17:43:03.604Z,19.88
2022-10-01T17:45:36.561Z,19.74
2022-10-01T17:49:07.329Z,19.73
2022-10-01T17:51:54.721Z,19.56
2022-10-01T17:55:04.181Z,19.44
2022-10-01T17:57:43.939Z,19.36
2022-10-01T18:00:32.949Z,19.31
2022-10-01T18:03:25.978Z,19.29
2022-10-01T18:06:16.845Z,19.31
2022-10-01T18:09:55.803Z,19.35
2022-10-01T18:12:52.850Z,19.34
2022-10-01T18:15:32.064Z,19.30
2022-10-01T18:21:51.071Z,19.33
2022-10-01T18:24:36.547Z,19.33
2022-10-01T18:27:19.713Z,19.42
2022-10-01T18:29:56.533Z,19.48
2022-10-01T18:32:26.729Z,19.50
2022-10-01T18:35:01.696Z,19.49
2022-10-01T18:37:46.828Z,19.52
2022-10-01T18:40:43.262Z,19.58
2022-10-01T18:43:27.310Z,19.56
2022-10-01T18:46:13.899Z,19.46
2022-10-01T18:48:57.936Z,19.41
2022-10-01T18:51:54.250Z,19.32
2022-10-01T18:55:08.674Z,19.12
2022-10-01T18:57:59.346Z,18.97
2022-10-01T19:00:35.735Z,18.99
2022-10-01T19:03:22.760Z,18.97
2022-10-01T19:06:53.823Z,18.95
2022-10-01T19:09:52.263Z,18.91
2022-10-01T19:12:46.902Z,18.95
2022-10-01T19:15:48.280Z,18.95
2022-10-01T19:18:51.966Z,18.90
2022-10-01T19:21:49.488Z,18.97
2022-10-01T19:24:29.605Z,19.08
2022-10-01T19:27:20.993Z,19.08
2022-10-01T19:30:06.056Z,19.09
2022-10-01T19:33:03.256Z,19.17
2022-10-01T19:35:39.204Z,19.16
2022-10-01T19:38:40.626Z,19.07
2022-10-01T19:41:44.790Z,19.03
2022-10-01T19:44:19.537Z,19.06
2022-10-01T19:46:47.969Z,19.07
2022-10-01T19:49:36.642Z,19.11
2022-10-01T19:52:38.131Z,19.15
2022-10-01T19:55:19.556Z,19.08
2022-10-01T19:57:50.876Z,19.09
2022-10-01T20:00:30.565Z,19.14
2022-10-01T20:03:29.639Z,19.17
2022-10-01T20:06:13.538Z,19.23
2022-10-01T20:08:58.600Z,19.24
2022-10-01T20:11:48.168Z,19.20
2022-10-01T20:15:08.515Z,19.11
2022-10-01T20:18:30.113Z,19.08
2022-10-01T20:21:55.034Z,19.10
2022-10-01T20:24:55.165Z,19.22
2022-10-01T20:28:09.913Z,19.31
2022-10-01T20:31:25.150Z,19.26
2022-10-01T20:34:45.543Z,19.17
2022-10-01T20:38:30.736Z,19.02
2022-10-01T20:41:14.763Z,18.86
2022-10-01T20:44:16.219Z,18.71
2022-10-01T20:47:31.574Z,18.53
2022-10-01T20:50:45.329Z,18.15
2022-10-01T20:53:58.382Z,18.19
2022-10-01T20:56:44.546Z,18.03
2022-10-01T20:59:27.857Z,18.01
2022-10-01T21:02:31.344Z,18.04
2022-10-01T21:05:12.838Z,17.93
2022-10-01T21:07:58.608Z,17.83
2022-10-01T21:11:04.067Z,17.66
2022-10-01T21:13:56.372Z,17.66
2022-10-01T21:17:38.012Z,17.61
2022-10-01T21:20:59.545Z,17.53
2022-10-01T21:24:26.129Z,17.33
2022-10-01T21:27:48.051Z,17.40
2022-10-01T21:30:53.976Z,17.38
2022-10-01T21:33:37.261Z,17.42
2022-10-01T21:37:16.249Z,17.42
2022-10-01T21:39:54.041Z,17.48
2022-10-01T21:43:08.163Z,17.51
2022-10-01T21:46:22.193Z,17.45
2022-10-01T21:49:40.354Z,17.48
2022-10-01T21:52:57.299Z,17.48
2022-10-01T21:56:16.782Z,17.50
2022-10-01T22:00:02.048Z,17.56
2022-10-01T22:02:50.537Z,17.49
2022-10-01T22:05:32.684Z,17.58
2022-10-01T22:08:25.112Z,17.52
2022-10-01T22:10:56.763Z,17.59
2022-10-01T22:13:35.098Z,17.56
2022-10-01T22:16:08.502Z,17.53
2022-10-01T22:18:51.713Z,17.49
2022-10-01T22:21:50.688Z,17.54
2022-10-01T22:24:24.911Z,17.62
2022-10-01T22:27:00.761Z,17.33
2022-10-01T22:29:29.572Z,17.27
2022-10-01T22:32:03.054Z,17.25
2022-10-01T22:34:48.391Z,17.34
2022-10-01T22:37:25.211Z,17.31
2022-10-01T22:40:12.250Z,17.27
2022-10-01T22:42:47.696Z,17.38
2022-10-01T22:45:18.696Z,17.41
2022-10-01T22:48:03.670Z,17.38
2022-10-01T22:51:15.574Z,17.39
2022-10-01T22:54:40.299Z,17.32
2022-10-01T22:57:23.306Z,17.37
2022-10-01T23:00:13.322Z,17.41
2022-10-01T23:03:30.790Z,17.36
2022-10-01T23:06:15.725Z,17.37
2022-10-01T23:08:58.344Z,17.38
2022-10-01T23:11:59.609Z,17.36
2022-10-01T23:14:46.051Z,17.30
2022-10-01T23:18:05.737Z,17.29
2022-10-01T23:21:21.646Z,17.23
2022-10-01T23:24:35.940Z,17.21
2022-10-01T23:27:59.706Z,17.33
2022-10-01T23:31:26.577Z,17.38
2022-10-01T23:34:36.751Z,17.24
2022-10-01T23:38:27.555Z,17.27
2022-10-01T23:41:38.783Z,17.10
2022-10-01T23:44:36.270Z,16.96
2022-10-01T23:47:10.025Z,16.88
2022-10-01T23:49:54.905Z,16.82
2022-10-01T23:53:18.654Z,16.88
2022-10-01T23:57:10.086Z,16.88
2022-10-01T23:59:48.081Z,16.69
